sensor_id;sensor_type;location;lat;lon;timestamp;temperature;humidity
14555;DHT22;7364;50.870;4.722;2022-09-17T00:00:37;10.70;99.90
14555;DHT22;7364;50.870;4.722;2022-09-17T00:03:06;10.60;99.90
14555;DHT22;7364;50.870;4.722;2022-09-17T00:05:34;10.60;99.90
14555;DHT22;7364;50.870;4.722;2022-09-17T00:08:03;10.70;99.90
14555;DHT22;7364;50.870;4.722;2022-09-17T00:10:31;10.70;99.90
14555;DHT22;7364;50.870;4.722;2022-09-17T00:12:58;10.70;99.90
14555;DHT22;7364;50.870;4.722;2022-09-17T00:15:26;10.70;99.90
14555;DHT22;7364;50.870;4.722;2022-09-17T00:17:54;10.80;99.90
14555;DHT22;7364;50.870;4.722;2022-09-17T00:20:25;10.80;99.90
14555;DHT22;7364;50.870;4.722;2022-09-17T00:22:52;10.70;99.90
14555;DHT22;7364;50.870;4.722;2022-09-17T00:25:20;10.80;99.90
14555;DHT22;7364;50.870;4.722;2022-09-17T00:27:47;10.80;99.90
14555;DHT22;7364;50.870;4.722;2022-09-17T00:30:14;10.80;99.90
14555;DHT22;7364;50.870;4.722;2022-09-17T00:32:43;10.70;99.90
14555;DHT22;7364;50.870;4.722;2022-09-17T00:35:10;10.70;99.90
14555;DHT22;7364;50.870;4.722;2022-09-17T00:37:38;10.70;99.90
14555;DHT22;7364;50.870;4.722;2022-09-17T00:40:07;10.80;99.90
14555;DHT22;7364;50.870;4.722;2022-09-17T00:42:35;10.80;99.90
14555;DHT22;7364;50.870;4.722;2022-09-17T00:45:02;10.80;99.90
14555;DHT22;7364;50.870;4.722;2022-09-17T00:47:34;10.80;99.90
14555;DHT22;7364;50.870;4.722;2022-09-17T00:50:09;10.80;99.90
14555;DHT22;7364;50.870;4.722;2022-09-17T00:52:42;10.70;99.90
14555;DHT22;7364;50.870;4.722;2022-09-17T00:55:15;10.80;99.90
14555;DHT22;7364;50.870;4.722;2022-09-17T00:57:43;10.80;99.90
14555;DHT22;7364;50.870;4.722;2022-09-17T01:00:12;10.80;99.90
14555;DHT22;7364;50.870;4.722;2022-09-17T01:02:41;10.80;99.90
14555;DHT22;7364;50.870;4.722;2022-09-17T01:05:10;10.70;99.90
14555;DHT22;7364;50.870;4.722;2022-09-17T01:07:57;10.70;99.90
14555;DHT22;7364;50.870;4.722;2022-09-17T01:10:41;10.70;99.90
14555;DHT22;7364;50.870;4.722;2022-09-17T01:13:25;10.70;99.90
14555;DHT22;7364;50.870;4.722;2022-09-17T01:16:06;10.70;99.90
14555;DHT22;7364;50.870;4.722;2022-09-17T01:18:46;10.70;99.90
14555;DHT22;7364;50.870;4.722;2022-09-17T01:21:36;10.70;99.90
14555;DHT22;7364;50.870;4.722;2022-09-17T01:30:17;10.70;99.90
14555;DHT22;7364;50.870;4.722;2022-09-17T01:32:52;10.70;99.90
14555;DHT22;7364;50.870;4.722;2022-09-17T01:35:31;10.60;99.90
14555;DHT22;7364;50.870;4.722;2022-09-17T01:38:03;10.70;99.90
14555;DHT22;7364;50.870;4.722;2022-09-17T01:40:43;10.70;99.90
14555;DHT22;7364;50.870;4.722;2022-09-17T01:43:20;10.70;99.90
14555;DHT22;7364;50.870;4.722;2022-09-17T01:45:51;10.70;99.90
14555;DHT22;7364;50.870;4.722;2022-09-17T01:48:23;10.60;99.90
14555;DHT22;7364;50.870;4.722;2022-09-17T01:50:56;10.70;99.90
14555;DHT22;7364;50.870;4.722;2022-09-17T01:53:28;10.70;99.90
14555;DHT22;7364;50.870;4.722;2022-09-17T01:56:00;10.70;99.90
14555;DHT22;7364;50.870;4.722;2022-09-17T01:58:33;10.70;99.90
14555;DHT22;7364;50.870;4.722;2022-09-17T02:01:06;10.70;99.90
14555;DHT22;7364;50.870;4.722;2022-09-17T02:03:39;10.70;99.90
14555;DHT22;7364;50.870;4.722;2022-09-17T02:06:10;10.70;99.90
14555;DHT22;7364;50.870;4.722;2022-09-17T02:08:44;10.70;99.90
14555;DHT22;7364;50.870;4.722;2022-09-17T02:11:13;10.70;99.90
14555;DHT22;7364;50.870;4.722;2022-09-17T02:13:49;10.70;99.90
14555;DHT22;7364;50.870;4.722;2022-09-17T02:16:23;10.70;99.90
14555;DHT22;7364;50.870;4.722;2022-09-17T02:18:57;10.70;99.90
14555;DHT22;7364;50.870;4.722;2022-09-17T02:21:31;10.70;99.90
14555;DHT22;7364;50.870;4.722;2022-09-17T02:24:06;10.70;99.90
14555;DHT22;7364;50.870;4.722;2022-09-17T02:26:40;10.70;99.90
14555;DHT22;7364;50.870;4.722;2022-09-17T02:29:16;10.70;99.90
14555;DHT22;7364;50.870;4.722;2022-09-17T02:31:45;10.80;99.90
14555;DHT22;7364;50.870;4.722;2022-09-17T02:34:18;10.70;99.90
14555;DHT22;7364;50.870;4.722;2022-09-17T02:36:47;10.70;99.90
14555;DHT22;7364;50.870;4.722;2022-09-17T02:39:14;10.70;99.90
14555;DHT22;7364;50.870;4.722;2022-09-17T02:41:48;10.80;99.90
14555;DHT22;7364;50.870;4.722;2022-09-17T02:44:26;10.80;99.90
14555;DHT22;7364;50.870;4.722;2022-09-17T02:47:18;10.80;99.90
14555;DHT22;7364;50.870;4.722;2022-09-17T02:50:07;10.80;99.90
14555;DHT22;7364;50.870;4.722;2022-09-17T02:52:52;10.90;99.90
14555;DHT22;7364;50.870;4.722;2022-09-17T02:55:30;10.90;99.90
14555;DHT22;7364;50.870;4.722;2022-09-17T02:58:07;10.90;99.90
14555;DHT22;7364;50.870;4.722;2022-09-17T03:00:38;10.90;99.90
14555;DHT22;7364;50.870;4.722;2022-09-17T03:03:09;10.90;99.90
14555;DHT22;7364;50.870;4.722;2022-09-17T03:05:41;10.90;99.90
14555;DHT22;7364;50.870;4.722;2022-09-17T03:08:12;10.90;99.90
14555;DHT22;7364;50.870;4.722;2022-09-17T03:10:40;10.90;99.90
14555;DHT22;7364;50.870;4.722;2022-09-17T03:13:08;10.90;99.90
14555;DHT22;7364;50.870;4.722;2022-09-17T03:15:35;10.90;99.90
14555;DHT22;7364;50.870;4.722;2022-09-17T03:18:02;10.90;99.90
14555;DHT22;7364;50.870;4.722;2022-09-17T03:20:29;10.90;99.90
14555;DHT22;7364;50.870;4.722;2022-09-17T03:22:58;11.00;99.90
14555;DHT22;7364;50.870;4.722;2022-09-17T03:25:25;11.00;99.90
14555;DHT22;7364;50.870;4.722;2022-09-17T03:27:52;10.90;99.90
14555;DHT22;7364;50.870;4.722;2022-09-17T03:30:20;10.90;99.90
14555;DHT22;7364;50.870;4.722;2022-09-17T03:32:47;11.00;99.90
14555;DHT22;7364;50.870;4.722;2022-09-17T03:35:15;11.00;99.90
14555;DHT22;7364;50.870;4.722;2022-09-17T03:37:43;11.00;99.90
14555;DHT22;7364;50.870;4.722;2022-09-17T03:40:13;11.00;99.90
14555;DHT22;7364;50.870;4.722;2022-09-17T03:42:43;11.00;99.90
14555;DHT22;7364;50.870;4.722;2022-09-17T03:45:11;10.90;99.90
14555;DHT22;7364;50.870;4.722;2022-09-17T03:47:38;10.80;99.90
14555;DHT22;7364;50.870;4.722;2022-09-17T03:50:05;10.80;99.90
14555;DHT22;7364;50.870;4.722;2022-09-17T03:52:33;10.80;99.90
14555;DHT22;7364;50.870;4.722;2022-09-17T03:55:00;10.70;99.90
14555;DHT22;7364;50.870;4.722;2022-09-17T03:57:28;10.70;99.90
14555;DHT22;7364;50.870;4.722;2022-09-17T03:59:55;10.70;99.90
14555;DHT22;7364;50.870;4.722;2022-09-17T04:02:23;10.70;99.90
14555;DHT22;7364;50.870;4.722;2022-09-17T04:04:51;10.80;99.90
14555;DHT22;7364;50.870;4.722;2022-09-17T04:07:19;10.70;99.90
14555;DHT22;7364;50.870;4.722;2022-09-17T04:09:46;10.70;99.90
14555;DHT22;7364;50.870;4.722;2022-09-17T04:12:13;10.70;99.90
14555;DHT22;7364;50.870;4.722;2022-09-17T04:14:41;10.70;99.90
14555;DHT22;7364;50.870;4.722;2022-09-17T04:17:08;10.70;99.90
14555;DHT22;7364;50.870;4.722;2022-09-17T04:19:36;10.70;99.90
14555;DHT22;7364;50.870;4.722;2022-09-17T04:22:03;10.70;99.90
14555;DHT22;7364;50.870;4.722;2022-09-17T04:24:30;10.60;99.90
14555;DHT22;7364;50.870;4.722;2022-09-17T04:26:57;10.60;99.90
14555;DHT22;7364;50.870;4.722;2022-09-17T04:29:25;10.60;99.90
14555;DHT22;7364;50.870;4.722;2022-09-17T04:31:53;10.60;99.90
14555;DHT22;7364;50.870;4.722;2022-09-17T04:34:20;10.70;99.90
14555;DHT22;7364;50.870;4.722;2022-09-17T04:36:48;10.60;99.90
14555;DHT22;7364;50.870;4.722;2022-09-17T04:39:15;10.60;99.90
14555;DHT22;7364;50.870;4.722;2022-09-17T04:41:42;10.60;99.90
14555;DHT22;7364;50.870;4.722;2022-09-17T04:44:09;10.50;99.90
14555;DHT22;7364;50.870;4.722;2022-09-17T04:46:40;10.60;99.90
14555;DHT22;7364;50.870;4.722;2022-09-17T04:49:08;10.50;99.90
14555;DHT22;7364;50.870;4.722;2022-09-17T04:51:36;10.70;99.90
14555;DHT22;7364;50.870;4.722;2022-09-17T04:54:03;10.60;99.90
14555;DHT22;7364;50.870;4.722;2022-09-17T04:56:30;10.70;99.90
14555;DHT22;7364;50.870;4.722;2022-09-17T04:58:58;10.60;99.90
14555;DHT22;7364;50.870;4.722;2022-09-17T05:01:25;10.60;99.90
14555;DHT22;7364;50.870;4.722;2022-09-17T05:03:52;10.50;99.90
14555;DHT22;7364;50.870;4.722;2022-09-17T05:06:21;10.60;99.90
14555;DHT22;7364;50.870;4.722;2022-09-17T05:08:48;10.60;99.90
14555;DHT22;7364;50.870;4.722;2022-09-17T05:11:15;10.70;99.90
14555;DHT22;7364;50.870;4.722;2022-09-17T05:13:42;10.70;99.90
14555;DHT22;7364;50.870;4.722;2022-09-17T05:16:09;10.50;99.90
14555;DHT22;7364;50.870;4.722;2022-09-17T05:18:39;10.50;99.90
14555;DHT22;7364;50.870;4.722;2022-09-17T05:21:06;10.40;99.90
14555;DHT22;7364;50.870;4.722;2022-09-17T05:23:35;10.30;99.90
14555;DHT22;7364;50.870;4.722;2022-09-17T05:26:02;10.40;99.90
14555;DHT22;7364;50.870;4.722;2022-09-17T05:28:29;10.40;99.90
14555;DHT22;7364;50.870;4.722;2022-09-17T05:30:58;10.40;99.90
14555;DHT22;7364;50.870;4.722;2022-09-17T05:33:25;10.40;99.90
14555;DHT22;7364;50.870;4.722;2022-09-17T05:35:53;10.40;99.90
14555;DHT22;7364;50.870;4.722;2022-09-17T05:38:20;10.40;99.90
14555;DHT22;7364;50.870;4.722;2022-09-17T05:40:49;10.40;99.90
14555;DHT22;7364;50.870;4.722;2022-09-17T05:43:17;10.50;99.90
14555;DHT22;7364;50.870;4.722;2022-09-17T05:45:49;10.50;99.90
14555;DHT22;7364;50.870;4.722;2022-09-17T05:48:18;10.50;99.90
14555;DHT22;7364;50.870;4.722;2022-09-17T05:50:46;10.60;99.90
14555;DHT22;7364;50.870;4.722;2022-09-17T05:53:13;10.60;99.90
14555;DHT22;7364;50.870;4.722;2022-09-17T05:55:41;10.60;99.90
14555;DHT22;7364;50.870;4.722;2022-09-17T05:58:12;10.60;99.90
14555;DHT22;7364;50.870;4.722;2022-09-17T06:00:40;10.60;99.90
14555;DHT22;7364;50.870;4.722;2022-09-17T06:03:08;10.60;99.90
14555;DHT22;7364;50.870;4.722;2022-09-17T06:05:38;10.50;99.90
14555;DHT22;7364;50.870;4.722;2022-09-17T06:08:06;10.60;99.90
14555;DHT22;7364;50.870;4.722;2022-09-17T06:10:35;10.50;99.90
14555;DHT22;7364;50.870;4.722;2022-09-17T06:13:03;10.50;99.90
14555;DHT22;7364;50.870;4.722;2022-09-17T06:15:31;10.50;99.90
14555;DHT22;7364;50.870;4.722;2022-09-17T06:17:58;10.50;99.90
14555;DHT22;7364;50.870;4.722;2022-09-17T06:20:26;10.50;99.90
14555;DHT22;7364;50.870;4.722;2022-09-17T06:22:55;10.60;99.90
14555;DHT22;7364;50.870;4.722;2022-09-17T06:25:23;10.60;99.90
14555;DHT22;7364;50.870;4.722;2022-09-17T06:27:51;10.70;99.90
14555;DHT22;7364;50.870;4.722;2022-09-17T06:30:18;10.70;99.90
14555;DHT22;7364;50.870;4.722;2022-09-17T06:32:46;10.70;99.90
14555;DHT22;7364;50.870;4.722;2022-09-17T06:35:13;10.70;99.90
14555;DHT22;7364;50.870;4.722;2022-09-17T06:37:40;10.70;99.90
14555;DHT22;7364;50.870;4.722;2022-09-17T06:40:08;10.70;99.90
14555;DHT22;7364;50.870;4.722;2022-09-17T06:42:35;10.60;99.90
14555;DHT22;7364;50.870;4.722;2022-09-17T06:45:03;10.70;99.90
14555;DHT22;7364;50.870;4.722;2022-09-17T06:47:36;10.70;99.90
14555;DHT22;7364;50.870;4.722;2022-09-17T06:50:06;10.80;99.90
14555;DHT22;7364;50.870;4.722;2022-09-17T06:52:33;10.90;99.90
14555;DHT22;7364;50.870;4.722;2022-09-17T06:55:00;10.90;99.90
14555;DHT22;7364;50.870;4.722;2022-09-17T06:57:27;10.90;99.90
14555;DHT22;7364;50.870;4.722;2022-09-17T06:59:57;11.00;99.90
14555;DHT22;7364;50.870;4.722;2022-09-17T07:02:25;11.10;99.90
14555;DHT22;7364;50.870;4.722;2022-09-17T07:04:52;11.10;99.90
14555;DHT22;7364;50.870;4.722;2022-09-17T07:07:21;11.20;99.90
14555;DHT22;7364;50.870;4.722;2022-09-17T07:09:48;11.20;99.90
14555;DHT22;7364;50.870;4.722;2022-09-17T07:12:16;11.20;99.90
14555;DHT22;7364;50.870;4.722;2022-09-17T07:14:43;11.20;99.90
14555;DHT22;7364;50.870;4.722;2022-09-17T07:17:12;11.30;99.90
14555;DHT22;7364;50.870;4.722;2022-09-17T07:19:40;11.20;99.90
14555;DHT22;7364;50.870;4.722;2022-09-17T07:22:09;11.30;99.90
14555;DHT22;7364;50.870;4.722;2022-09-17T07:24:49;11.40;99.90
14555;DHT22;7364;50.870;4.722;2022-09-17T07:27:21;11.50;99.90
14555;DHT22;7364;50.870;4.722;2022-09-17T07:29:49;11.60;99.90
14555;DHT22;7364;50.870;4.722;2022-09-17T07:32:16;11.70;99.90
14555;DHT22;7364;50.870;4.722;2022-09-17T07:34:44;11.70;99.90
14555;DHT22;7364;50.870;4.722;2022-09-17T07:37:11;11.60;99.90
14555;DHT22;7364;50.870;4.722;2022-09-17T07:39:44;11.50;99.90
14555;DHT22;7364;50.870;4.722;2022-09-17T07:42:11;11.60;99.90
14555;DHT22;7364;50.870;4.722;2022-09-17T07:44:39;11.60;99.90
14555;DHT22;7364;50.870;4.722;2022-09-17T07:47:06;11.60;99.90
14555;DHT22;7364;50.870;4.722;2022-09-17T07:49:34;11.50;99.90
14555;DHT22;7364;50.870;4.722;2022-09-17T07:52:02;11.60;99.90
14555;DHT22;7364;50.870;4.722;2022-09-17T07:54:32;11.50;99.90
14555;DHT22;7364;50.870;4.722;2022-09-17T07:57:03;11.50;99.90
14555;DHT22;7364;50.870;4.722;2022-09-17T07:59:30;11.50;99.90
14555;DHT22;7364;50.870;4.722;2022-09-17T08:02:03;11.40;99.90
14555;DHT22;7364;50.870;4.722;2022-09-17T08:04:30;11.40;99.90
14555;DHT22;7364;50.870;4.722;2022-09-17T08:06:57;11.50;99.90
14555;DHT22;7364;50.870;4.722;2022-09-17T08:09:24;11.60;99.90
14555;DHT22;7364;50.870;4.722;2022-09-17T08:11:52;11.70;99.90
14555;DHT22;7364;50.870;4.722;2022-09-17T08:14:20;11.70;99.90
14555;DHT22;7364;50.870;4.722;2022-09-17T08:16:47;11.80;99.90
14555;DHT22;7364;50.870;4.722;2022-09-17T08:19:15;11.90;99.90
14555;DHT22;7364;50.870;4.722;2022-09-17T08:21:43;12.00;99.90
14555;DHT22;7364;50.870;4.722;2022-09-17T08:24:11;12.00;99.90
14555;DHT22;7364;50.870;4.722;2022-09-17T08:26:38;11.90;99.90
14555;DHT22;7364;50.870;4.722;2022-09-17T08:29:06;12.00;99.90
14555;DHT22;7364;50.870;4.722;2022-09-17T08:31:34;12.00;99.90
14555;DHT22;7364;50.870;4.722;2022-09-17T08:34:06;12.20;99.90
14555;DHT22;7364;50.870;4.722;2022-09-17T08:36:35;12.30;99.90
14555;DHT22;7364;50.870;4.722;2022-09-17T08:39:03;12.30;99.90
14555;DHT22;7364;50.870;4.722;2022-09-17T08:41:36;12.30;99.90
14555;DHT22;7364;50.870;4.722;2022-09-17T08:44:15;12.20;99.90
14555;DHT22;7364;50.870;4.722;2022-09-17T08:46:48;12.20;99.90
14555;DHT22;7364;50.870;4.722;2022-09-17T08:49:24;12.30;99.90
14555;DHT22;7364;50.870;4.722;2022-09-17T08:52:05;12.40;99.90
14555;DHT22;7364;50.870;4.722;2022-09-17T08:54:41;12.50;99.90
14555;DHT22;7364;50.870;4.722;2022-09-17T08:57:19;12.40;99.90
14555;DHT22;7364;50.870;4.722;2022-09-17T08:59:52;12.50;99.90
14555;DHT22;7364;50.870;4.722;2022-09-17T09:02:33;12.40;99.90
14555;DHT22;7364;50.870;4.722;2022-09-17T09:05:11;12.40;99.90
14555;DHT22;7364;50.870;4.722;2022-09-17T09:07:44;12.40;99.90
14555;DHT22;7364;50.870;4.722;2022-09-17T09:10:17;12.50;99.90
14555;DHT22;7364;50.870;4.722;2022-09-17T09:12:48;12.70;99.90
14555;DHT22;7364;50.870;4.722;2022-09-17T09:15:32;12.80;99.90
14555;DHT22;7364;50.870;4.722;2022-09-17T09:18:12;13.10;99.90
14555;DHT22;7364;50.870;4.722;2022-09-17T09:20:48;12.90;99.90
14555;DHT22;7364;50.870;4.722;2022-09-17T09:23:19;12.80;99.90
14555;DHT22;7364;50.870;4.722;2022-09-17T09:26:05;12.60;99.90
14555;DHT22;7364;50.870;4.722;2022-09-17T09:28:54;12.50;99.90
14555;DHT22;7364;50.870;4.722;2022-09-17T09:34:17;12.30;99.90
14555;DHT22;7364;50.870;4.722;2022-09-17T09:36:45;12.40;99.90
14555;DHT22;7364;50.870;4.722;2022-09-17T09:39:16;12.40;99.90
14555;DHT22;7364;50.870;4.722;2022-09-17T09:41:49;12.50;99.90
14555;DHT22;7364;50.870;4.722;2022-09-17T09:44:19;12.50;99.90
14555;DHT22;7364;50.870;4.722;2022-09-17T09:47:02;12.50;99.90
14555;DHT22;7364;50.870;4.722;2022-09-17T09:49:46;12.60;99.90
14555;DHT22;7364;50.870;4.722;2022-09-17T09:52:27;12.50;99.90
14555;DHT22;7364;50.870;4.722;2022-09-17T09:55:09;12.80;99.90
14555;DHT22;7364;50.870;4.722;2022-09-17T09:57:45;12.90;99.90
14555;DHT22;7364;50.870;4.722;2022-09-17T10:00:32;12.90;99.90
14555;DHT22;7364;50.870;4.722;2022-09-17T10:03:05;12.90;99.90
14555;DHT22;7364;50.870;4.722;2022-09-17T10:05:36;13.30;99.90
14555;DHT22;7364;50.870;4.722;2022-09-17T10:08:11;13.50;99.90
14555;DHT22;7364;50.870;4.722;2022-09-17T10:10:58;13.70;99.90
14555;DHT22;7364;50.870;4.722;2022-09-17T10:13:26;13.60;99.90
14555;DHT22;7364;50.870;4.722;2022-09-17T10:15:54;13.70;99.90
14555;DHT22;7364;50.870;4.722;2022-09-17T10:18:23;13.80;99.90
14555;DHT22;7364;50.870;4.722;2022-09-17T10:20:57;13.30;99.90
14555;DHT22;7364;50.870;4.722;2022-09-17T10:23:27;12.90;99.90
14555;DHT22;7364;50.870;4.722;2022-09-17T10:25:56;12.80;99.90
14555;DHT22;7364;50.870;4.722;2022-09-17T10:28:36;12.60;99.90
14555;DHT22;7364;50.870;4.722;2022-09-17T10:31:06;12.50;99.90
14555;DHT22;7364;50.870;4.722;2022-09-17T10:33:38;12.40;99.90
14555;DHT22;7364;50.870;4.722;2022-09-17T10:36:11;12.40;99.90
14555;DHT22;7364;50.870;4.722;2022-09-17T10:38:41;12.30;99.90
14555;DHT22;7364;50.870;4.722;2022-09-17T10:41:19;12.20;99.90
14555;DHT22;7364;50.870;4.722;2022-09-17T10:43:47;12.10;99.90
14555;DHT22;7364;50.870;4.722;2022-09-17T10:46:17;11.80;99.90
14555;DHT22;7364;50.870;4.722;2022-09-17T10:48:53;11.80;99.90
14555;DHT22;7364;50.870;4.722;2022-09-17T10:51:25;11.70;99.90
14555;DHT22;7364;50.870;4.722;2022-09-17T10:56:47;11.80;99.90
14555;DHT22;7364;50.870;4.722;2022-09-17T11:02:49;11.90;99.90
14555;DHT22;7364;50.870;4.722;2022-09-17T11:05:49;12.20;99.90
14555;DHT22;7364;50.870;4.722;2022-09-17T11:08:26;12.40;99.90
14555;DHT22;7364;50.870;4.722;2022-09-17T11:11:05;12.50;99.90
14555;DHT22;7364;50.870;4.722;2022-09-17T11:13:38;12.50;99.90
14555;DHT22;7364;50.870;4.722;2022-09-17T11:16:13;12.40;99.90
14555;DHT22;7364;50.870;4.722;2022-09-17T11:18:45;12.30;99.90
14555;DHT22;7364;50.870;4.722;2022-09-17T11:21:34;12.20;99.90
14555;DHT22;7364;50.870;4.722;2022-09-17T11:27:38;12.20;99.90
14555;DHT22;7364;50.870;4.722;2022-09-17T11:30:15;12.30;99.90
14555;DHT22;7364;50.870;4.722;2022-09-17T11:35:50;12.50;99.90
14555;DHT22;7364;50.870;4.722;2022-09-17T11:38:24;12.60;99.90
14555;DHT22;7364;50.870;4.722;2022-09-17T11:40:59;12.60;99.90
14555;DHT22;7364;50.870;4.722;2022-09-17T11:43:29;12.40;99.90
14555;DHT22;7364;50.870;4.722;2022-09-17T11:46:01;12.30;99.90
14555;DHT22;7364;50.870;4.722;2022-09-17T11:48:36;12.30;99.90
14555;DHT22;7364;50.870;4.722;2022-09-17T11:51:15;12.10;99.90
14555;DHT22;7364;50.870;4.722;2022-09-17T11:53:49;12.10;99.90
14555;DHT22;7364;50.870;4.722;2022-09-17T11:56:24;12.20;99.90
14555;DHT22;7364;50.870;4.722;2022-09-17T11:58:56;12.30;99.90
14555;DHT22;7364;50.870;4.722;2022-09-17T12:01:29;12.40;99.90
14555;DHT22;7364;50.870;4.722;2022-09-17T12:03:59;12.50;99.90
14555;DHT22;7364;50.870;4.722;2022-09-17T12:06:33;12.80;99.90
14555;DHT22;7364;50.870;4.722;2022-09-17T12:09:03;13.00;99.90
14555;DHT22;7364;50.870;4.722;2022-09-17T12:11:40;13.20;99.90
14555;DHT22;7364;50.870;4.722;2022-09-17T12:14:14;13.40;99.90
14555;DHT22;7364;50.870;4.722;2022-09-17T12:16:46;13.70;99.90
14555;DHT22;7364;50.870;4.722;2022-09-17T12:19:20;14.10;99.90
14555;DHT22;7364;50.870;4.722;2022-09-17T12:21:52;14.10;99.90
14555;DHT22;7364;50.870;4.722;2022-09-17T12:24:22;14.60;99.90
14555;DHT22;7364;50.870;4.722;2022-09-17T12:27:16;14.90;99.90
14555;DHT22;7364;50.870;4.722;2022-09-17T12:30:09;15.00;99.90
14555;DHT22;7364;50.870;4.722;2022-09-17T12:33:00;15.20;99.90
14555;DHT22;7364;50.870;4.722;2022-09-17T12:35:47;15.50;99.90
14555;DHT22;7364;50.870;4.722;2022-09-17T12:38:31;15.70;99.90
14555;DHT22;7364;50.870;4.722;2022-09-17T12:41:10;15.80;99.90
14555;DHT22;7364;50.870;4.722;2022-09-17T12:43:57;16.40;99.90
14555;DHT22;7364;50.870;4.722;2022-09-17T12:46:39;16.70;99.90
14555;DHT22;7364;50.870;4.722;2022-09-17T12:49:38;16.90;99.90
14555;DHT22;7364;50.870;4.722;2022-09-17T12:52:13;17.20;99.90
14555;DHT22;7364;50.870;4.722;2022-09-17T12:55:19;17.50;99.90
14555;DHT22;7364;50.870;4.722;2022-09-17T12:57:57;17.30;99.90
14555;DHT22;7364;50.870;4.722;2022-09-17T13:00:28;17.50;99.90
14555;DHT22;7364;50.870;4.722;2022-09-17T13:03:02;17.50;99.90
14555;DHT22;7364;50.870;4.722;2022-09-17T13:09:02;18.00;99.90
14555;DHT22;7364;50.870;4.722;2022-09-17T13:11:54;18.00;99.90
14555;DHT22;7364;50.870;4.722;2022-09-17T13:14:40;17.30;99.90
14555;DHT22;7364;50.870;4.722;2022-09-17T13:17:23;16.90;99.90
14555;DHT22;7364;50.870;4.722;2022-09-17T13:20:01;17.40;99.90
14555;DHT22;7364;50.870;4.722;2022-09-17T13:22:30;17.90;99.90
14555;DHT22;7364;50.870;4.722;2022-09-17T13:25:04;17.60;99.90
14555;DHT22;7364;50.870;4.722;2022-09-17T13:27:35;17.50;99.90
14555;DHT22;7364;50.870;4.722;2022-09-17T13:30:05;17.70;99.90
14555;DHT22;7364;50.870;4.722;2022-09-17T13:32:53;17.90;99.90
14555;DHT22;7364;50.870;4.722;2022-09-17T13:35:48;18.00;99.90
14555;DHT22;7364;50.870;4.722;2022-09-17T13:38:17;18.20;99.90
14555;DHT22;7364;50.870;4.722;2022-09-17T13:40:48;18.70;99.90
14555;DHT22;7364;50.870;4.722;2022-09-17T13:43:19;19.10;99.90
14555;DHT22;7364;50.870;4.722;2022-09-17T13:46:10;19.50;99.90
14555;DHT22;7364;50.870;4.722;2022-09-17T13:48:47;19.60;99.90
14555;DHT22;7364;50.870;4.722;2022-09-17T13:54:19;20.00;99.90
14555;DHT22;7364;50.870;4.722;2022-09-17T13:59:34;18.90;99.90
14555;DHT22;7364;50.870;4.722;2022-09-17T14:02:27;18.00;99.90
14555;DHT22;7364;50.870;4.722;2022-09-17T14:05:24;17.20;99.90
14555;DHT22;7364;50.870;4.722;2022-09-17T14:08:10;16.40;99.90
14555;DHT22;7364;50.870;4.722;2022-09-17T14:10:42;16.00;99.90
14555;DHT22;7364;50.870;4.722;2022-09-17T14:13:41;16.10;99.90
14555;DHT22;7364;50.870;4.722;2022-09-17T14:16:33;16.50;99.90
14555;DHT22;7364;50.870;4.722;2022-09-17T14:19:30;16.80;99.90
14555;DHT22;7364;50.870;4.722;2022-09-17T14:22:19;17.30;99.90
14555;DHT22;7364;50.870;4.722;2022-09-17T14:24:49;18.30;99.90
14555;DHT22;7364;50.870;4.722;2022-09-17T14:27:28;19.10;99.90
14555;DHT22;7364;50.870;4.722;2022-09-17T14:30:11;19.60;99.90
14555;DHT22;7364;50.870;4.722;2022-09-17T14:32:44;19.90;99.90
14555;DHT22;7364;50.870;4.722;2022-09-17T14:35:16;20.60;99.90
14555;DHT22;7364;50.870;4.722;2022-09-17T14:37:51;21.00;97.60
14555;DHT22;7364;50.870;4.722;2022-09-17T14:40:21;21.40;96.70
14555;DHT22;7364;50.870;4.722;2022-09-17T14:42:52;21.40;95.30
14555;DHT22;7364;50.870;4.722;2022-09-17T14:45:24;21.70;94.90
14555;DHT22;7364;50.870;4.722;2022-09-17T14:48:26;21.50;92.50
14555;DHT22;7364;50.870;4.722;2022-09-17T14:54:20;21.40;91.90
14555;DHT22;7364;50.870;4.722;2022-09-17T14:56:57;22.00;91.20
14555;DHT22;7364;50.870;4.722;2022-09-17T14:59:36;21.20;91.10
14555;DHT22;7364;50.870;4.722;2022-09-17T15:02:33;21.10;92.40
14555;DHT22;7364;50.870;4.722;2022-09-17T15:05:17;21.30;91.90
14555;DHT22;7364;50.870;4.722;2022-09-17T15:08:03;20.90;93.50
14555;DHT22;7364;50.870;4.722;2022-09-17T15:10:35;20.80;93.80
14555;DHT22;7364;50.870;4.722;2022-09-17T15:13:13;20.50;94.50
14555;DHT22;7364;50.870;4.722;2022-09-17T15:15:51;19.90;95.40
14555;DHT22;7364;50.870;4.722;2022-09-17T15:18:21;19.00;96.60
14555;DHT22;7364;50.870;4.722;2022-09-17T15:20:53;18.50;98.90
14555;DHT22;7364;50.870;4.722;2022-09-17T15:23:25;17.80;99.90
14555;DHT22;7364;50.870;4.722;2022-09-17T15:25:57;17.30;99.90
14555;DHT22;7364;50.870;4.722;2022-09-17T15:28:29;16.90;99.90
14555;DHT22;7364;50.870;4.722;2022-09-17T15:30:57;16.70;99.90
14555;DHT22;7364;50.870;4.722;2022-09-17T15:33:25;16.60;99.90
14555;DHT22;7364;50.870;4.722;2022-09-17T15:36:06;16.40;99.90
14555;DHT22;7364;50.870;4.722;2022-09-17T15:38:36;16.40;99.90
14555;DHT22;7364;50.870;4.722;2022-09-17T15:41:26;16.30;99.90
14555;DHT22;7364;50.870;4.722;2022-09-17T15:43:56;16.10;99.90
14555;DHT22;7364;50.870;4.722;2022-09-17T15:46:31;16.00;99.90
14555;DHT22;7364;50.870;4.722;2022-09-17T15:49:00;15.70;99.90
14555;DHT22;7364;50.870;4.722;2022-09-17T15:51:33;15.60;99.90
14555;DHT22;7364;50.870;4.722;2022-09-17T15:54:02;15.60;99.90
14555;DHT22;7364;50.870;4.722;2022-09-17T15:56:33;15.60;99.90
14555;DHT22;7364;50.870;4.722;2022-09-17T15:59:03;15.50;99.90
14555;DHT22;7364;50.870;4.722;2022-09-17T16:01:52;15.50;99.90
14555;DHT22;7364;50.870;4.722;2022-09-17T16:04:25;15.50;99.90
14555;DHT22;7364;50.870;4.722;2022-09-17T16:06:58;15.40;99.90
14555;DHT22;7364;50.870;4.722;2022-09-17T16:09:44;15.40;99.90
14555;DHT22;7364;50.870;4.722;2022-09-17T16:12:16;15.20;99.90
14555;DHT22;7364;50.870;4.722;2022-09-17T16:14:49;15.20;99.90
14555;DHT22;7364;50.870;4.722;2022-09-17T16:17:25;15.20;99.90
14555;DHT22;7364;50.870;4.722;2022-09-17T16:19:55;15.30;99.90
14555;DHT22;7364;50.870;4.722;2022-09-17T16:22:23;15.20;99.90
14555;DHT22;7364;50.870;4.722;2022-09-17T16:24:51;15.20;99.90
14555;DHT22;7364;50.870;4.722;2022-09-17T16:27:25;15.30;99.90
14555;DHT22;7364;50.870;4.722;2022-09-17T16:30:00;15.20;99.90
14555;DHT22;7364;50.870;4.722;2022-09-17T16:32:29;15.20;99.90
14555;DHT22;7364;50.870;4.722;2022-09-17T16:34:57;15.30;99.90
14555;DHT22;7364;50.870;4.722;2022-09-17T16:37:24;15.20;99.90
14555;DHT22;7364;50.870;4.722;2022-09-17T16:39:51;15.20;99.90
14555;DHT22;7364;50.870;4.722;2022-09-17T16:42:18;15.10;99.90
14555;DHT22;7364;50.870;4.722;2022-09-17T16:44:47;15.00;99.90
14555;DHT22;7364;50.870;4.722;2022-09-17T16:47:15;14.80;99.90
14555;DHT22;7364;50.870;4.722;2022-09-17T16:49:43;14.80;99.90
14555;DHT22;7364;50.870;4.722;2022-09-17T16:52:10;14.90;99.90
14555;DHT22;7364;50.870;4.722;2022-09-17T16:54:37;14.90;99.90